ADDS METAR Data INFO
IDs: Format: Raw Decoded Include TAF

Data at: 1251 UTC 19 Oct 2017

KDLH 191155Z 25010KT 10SM CLR 04/M03 A2995 RMK AO2 SLP152 T00441033 10072 20033 51015
KDLH 191055Z 27010KT 10SM CLR 05/M03 A2993 RMK AO2 SLP144 T00501033
KDLH 190955Z 26011KT 10SM CLR 06/M04 A2993 RMK AO2 SLP142 T00611039
KDLH 190855Z 26012KT 10SM CLR 06/M04 A2991 RMK AO2 SLP133 T00611044 51010
KDLH 190755Z 26012KT 10SM CLR 06/M05 A2990 RMK AO2 SLP131 T00611050
KDLH 190655Z 26011KT 10SM CLR 06/M06 A2989 RMK AO2 SLP127 T00611056
KDLH 190555Z 27011KT 10SM CLR 07/M06 A2987 RMK AO2 SLP121 T00721061 10122 20072 402000072 51011
KDLH 190455Z 26014KT 10SM CLR 08/M07 A2987 RMK AO2 SLP121 T00781067
KDLH 190355Z 27011KT 10SM CLR 08/M07 A2986 RMK AO2 SLP119 T00781072
KDLH 190255Z 27013G21KT 10SM CLR 09/M08 A2984 RMK AO2 SLP112 T00941078 51016
KDLH 190155Z 28011KT 10SM CLR 10/M08 A2983 RMK AO2 SLP107 T01001078
KDLH 190055Z 27010KT 10SM CLR 09/M07 A2981 RMK AO2 SLP101 T00941067
KDLH 182355Z 29013KT 10SM CLR 13/M09 A2979 RMK AO2 SLP094 T01281089 10200 20128 53025
KDLH 182255Z 29014G26KT 10SM CLR 14/M09 A2977 RMK AO2 PK WND 28027/2210 SLP084 T01441094
KDLH 182155Z 29018G26KT 10SM CLR 17/M09 A2974 RMK AO2 PK WND 29029/2126 SLP073 T01671094
KDLH 182055Z 29025G32KT 10SM FEW120 18/M08 A2971 RMK AO2 PK WND 28032/2051 SLP065 T01781078 53006
KDLH 181955Z 28022G27KT 10SM FEW120 19/01 A2970 RMK AO2 PK WND 27028/1930 SLP057 T01940006
KDLH 181855Z 28017G25KT 10SM FEW120 19/04 A2970 RMK AO2 PK WND 28026/1838 SLP058 T01890044
KDLH 181755Z 24013KT 10SM FEW120 18/08 A2970 RMK AO2 SLP058 T01780078 10183 20111 56010
KDLH 181655Z 24016KT 10SM FEW120 16/07 A2970 RMK AO2 SLP061 T01610072
KDLH 181555Z 24018G26KT 10SM FEW120 16/07 A2971 RMK AO2 PK WND 24026/1554 SLP064 T01560067
KDLH 181455Z 25017G24KT 9SM FEW120 14/07 A2973 RMK AO2 PRESRR SLP070 T01390067 55002
KDLH 181355Z 21011G22KT 10SM CLR 13/07 A2970 RMK AO2 SLP060 T01280067
KDLH 181255Z 21012KT 10SM CLR 11/06 A2973 RMK AO2 SLP073 T01110061
KDLH 181155Z 21015KT 10SM CLR 12/06 A2973 RMK AO2 SLP073 T01170061 10133 20106 58018
KDLH 181055Z 21013KT 10SM CLR 12/06 A2976 RMK AO2 SLP080 T01170061
KDLH 180955Z 22009KT 10SM CLR 11/06 A2979 RMK AO2 SLP089 T01060061
KDLH 180855Z 22012KT 10SM CLR 12/06 A2979 RMK AO2 SLP089 T01170056 56007
KDLH 180755Z 22012KT 10SM CLR 12/05 A2979 RMK AO2 SLP090 T01170050
KDLH 180655Z 22012KT 10SM CLR 12/05 A2980 RMK AO2 SLP093 T01220050
KDLH 180555Z 21009KT 10SM CLR 13/05 A2981 RMK AO2 SLP096 T01280050 10150 20128 402000050 58013
KDLH 180455Z 21010KT 10SM CLR 13/05 A2983 RMK AO2 SLP103 T01330050
KDLH 180355Z 21009KT 10SM CLR 14/06 A2985 RMK AO2 SLP111 T01440056
KDLH 180255Z 21012KT 10SM CLR 15/05 A2985 RMK AO2 SLP112 T01500050 57010
KDLH 180155Z 21012KT 10SM CLR 15/05 A2986 RMK AO2 SLP116 T01500050
KDLH 180055Z 19008KT 10SM CLR 13/04 A2987 RMK AO2 SLP123 T01280044